Time;durP1;ratioP1;P1;durP2;ratioP2;P2;SDS_P1;SDS_P2;PMS_P1;PMS_P2;Temp;Humidity;BMP_temperature;BMP_pressure;BME280_temperature;BME280_humidity;BME280_pressure;Samples;Min_cycle;Max_cycle;Signal;HPM_P1;HPM_P2
2023/05/07 00:00:28;;;;;;;8.48;1.52;;;31.10;26.50;;;;;;5066638;28;20544;-60
2023/05/07 00:02:54;;;;;;;15.50;1.55;;;31.00;27.40;;;;;;5062919;28;20043;-63
2023/05/07 00:05:20;;;;;;;5.88;1.00;;;31.00;27.30;;;;;;5064449;28;20544;-65
2023/05/07 00:07:47;;;;;;;6.00;1.33;;;31.00;27.80;;;;;;5063030;28;20117;-64
2023/05/07 00:10:14;;;;;;;10.23;1.50;;;31.00;27.30;;;;;;5065264;28;20050;-58
2023/05/07 00:12:41;;;;;;;8.25;1.25;;;31.10;28.10;;;;;;5065575;28;20169;-57
2023/05/07 00:15:08;;;;;;;13.25;1.30;;;31.10;26.30;;;;;;5058964;28;20092;-61
2023/05/07 00:17:34;;;;;;;218.48;10.95;;;31.10;26.30;;;;;;5060354;28;20053;-61
2023/05/07 00:20:01;;;;;;;6.88;1.10;;;31.00;26.20;;;;;;5064568;28;20126;-62
2023/05/07 00:22:29;;;;;;;4.10;1.10;;;30.90;27.40;;;;;;5063154;28;20034;-61
2023/05/07 00:24:56;;;;;;;4.80;1.20;;;30.90;26.40;;;;;;5059704;28;20092;-61
2023/05/07 00:27:23;;;;;;;22.98;2.00;;;30.80;27.30;;;;;;5060438;28;20208;-61
2023/05/07 00:29:50;;;;;;;3.50;0.60;;;30.70;27.30;;;;;;5043159;28;20031;-62
2023/05/07 00:32:16;;;;;;;2.67;0.95;;;30.70;27.00;;;;;;5057571;28;20060;-62
2023/05/07 00:34:44;;;;;;;3.92;0.75;;;30.70;27.60;;;;;;5063380;28;20649;-61
2023/05/07 00:37:11;;;;;;;4.20;1.17;;;30.60;28.00;;;;;;5065023;28;20115;-61
2023/05/07 00:39:38;;;;;;;10.98;1.60;;;30.70;27.70;;;;;;5067978;28;20031;-61
2023/05/07 00:42:04;;;;;;;6.75;1.33;;;30.60;27.30;;;;;;5065223;28;20060;-63
2023/05/07 00:44:31;;;;;;;6.15;1.48;;;30.60;26.40;;;;;;5065112;28;20348;-62
2023/05/07 00:47:03;;;;;;;4.90;1.02;;;30.60;26.20;;;;;;5058869;28;20055;-61
2023/05/07 00:49:43;;;;;;;2.95;1.38;;;30.40;26.50;;;;;;5066355;28;20040;-62
2023/05/07 00:52:14;;;;;;;4.72;1.67;;;30.30;26.50;;;;;;5065606;28;20052;-60
2023/05/07 00:54:41;;;;;;;2.72;1.27;;;30.20;27.20;;;;;;5067038;28;20083;-63
2023/05/07 00:57:09;;;;;;;4.97;1.55;;;30.10;26.80;;;;;;5069541;28;20052;-63
2023/05/07 00:59:36;;;;;;;6.05;1.13;;;30.10;27.10;;;;;;5061323;28;20045;-62
2023/05/07 01:02:03;;;;;;;10.65;1.70;;;30.10;27.30;;;;;;5049035;28;20045;-62
2023/05/07 01:04:30;;;;;;;13.30;1.95;;;30.00;27.70;;;;;;5062076;28;20046;-62
2023/05/07 01:06:58;;;;;;;5.20;1.30;;;29.90;27.80;;;;;;5065907;28;20084;-61
2023/05/07 01:09:29;;;;;;;10.13;1.48;;;29.70;28.00;;;;;;5062742;28;20037;-63
2023/05/07 01:11:57;;;;;;;3.28;1.30;;;29.80;28.20;;;;;;5066512;28;20731;-62
2023/05/07 01:14:25;;;;;;;16.67;1.85;;;29.60;28.70;;;;;;5067974;28;20169;-62
2023/05/07 01:16:53;;;;;;;8.48;1.50;;;29.50;28.30;;;;;;5062564;28;20042;-62
2023/05/07 01:19:19;;;;;;;9.23;1.92;;;29.30;29.00;;;;;;5064601;28;20044;-64
2023/05/07 01:21:49;;;;;;;17.98;2.20;;;29.20;29.40;;;;;;5068847;28;20465;-63
2023/05/07 01:24:15;;;;;;;6.13;1.33;;;29.10;29.60;;;;;;5063184;28;20049;-60
2023/05/07 01:26:44;;;;;;;11.50;1.92;;;29.10;29.50;;;;;;5066250;28;20465;-64
2023/05/07 01:29:10;;;;;;;19.70;1.70;;;29.10;29.50;;;;;;5048159;28;20510;-66
2023/05/07 01:31:38;;;;;;;8.25;1.83;;;29.10;29.60;;;;;;5063055;28;20080;-62
2023/05/07 01:34:07;;;;;;;12.77;1.70;;;29.10;29.90;;;;;;5051972;28;20368;-64
2023/05/07 01:36:34;;;;;;;11.70;2.15;;;29.40;30.00;;;;;;5062410;28;20047;-63
2023/05/07 01:39:02;;;;;;;13.13;1.85;;;29.60;29.80;;;;;;5066078;28;20110;-63
2023/05/07 01:41:28;;;;;;;10.25;2.15;;;29.50;29.70;;;;;;5063108;28;20050;-61
2023/05/07 01:43:58;;;;;;;16.10;2.17;;;29.30;30.20;;;;;;5060720;28;20037;-61
2023/05/07 01:46:26;;;;;;;8.98;2.10;;;29.20;30.20;;;;;;5059182;28;20050;-64
2023/05/07 01:48:52;;;;;;;10.90;2.38;;;29.30;30.90;;;;;;5061677;28;20421;-61
2023/05/07 01:51:20;;;;;;;9.85;2.33;;;29.80;30.00;;;;;;5060668;28;20121;-62
2023/05/07 01:53:50;;;;;;;15.13;2.13;;;29.90;30.00;;;;;;5063667;28;20084;-57
2023/05/07 01:56:18;;;;;;;15.15;2.55;;;29.10;31.10;;;;;;5063389;28;20056;-58
2023/05/07 01:58:48;;;;;;;15.32;2.55;;;28.50;31.90;;;;;;5066637;28;20052;-59
2023/05/07 02:01:15;;;;;;;10.07;2.47;;;28.00;32.00;;;;;;5063011;28;20065;-61
2023/05/07 02:03:41;;;;;;;15.07;2.58;;;27.80;33.10;;;;;;5060674;28;20087;-61
2023/05/07 02:06:08;;;;;;;26.52;2.28;;;27.60;34.00;;;;;;5058944;28;20060;-59
2023/05/07 02:08:34;;;;;;;13.77;2.72;;;27.40;33.20;;;;;;5065722;28;20107;-61
2023/05/07 02:11:01;;;;;;;10.20;2.20;;;27.20;33.10;;;;;;5062532;28;20096;-60
2023/05/07 02:13:30;;;;;;;13.18;2.60;;;27.10;32.90;;;;;;5059740;28;20058;-59
2023/05/07 02:15:57;;;;;;;17.48;2.92;;;27.00;33.10;;;;;;5063949;28;20084;-59
2023/05/07 02:18:23;;;;;;;12.50;2.85;;;26.80;33.50;;;;;;5057686;28;20078;-61
2023/05/07 02:20:49;;;;;;;15.07;2.40;;;26.70;33.60;;;;;;5062245;28;20065;-62
2023/05/07 02:23:16;;;;;;;13.32;2.58;;;26.60;34.10;;;;;;5060320;28;20140;-59
2023/05/07 02:25:42;;;;;;;16.83;2.85;;;26.50;34.10;;;;;;5062159;28;20524;-61
2023/05/07 02:28:09;;;;;;;7.45;2.67;;;26.50;34.10;;;;;;5061196;28;20541;-62
2023/05/07 02:30:36;;;;;;;8.60;2.33;;;26.30;33.70;;;;;;5059400;28;20109;-65
2023/05/07 02:33:03;;;;;;;33.10;2.90;;;26.30;33.50;;;;;;5061836;28;20051;-62
2023/05/07 02:35:29;;;;;;;10.40;2.45;;;26.20;33.70;;;;;;5062332;28;20513;-65
2023/05/07 02:37:55;;;;;;;13.13;2.80;;;26.20;33.50;;;;;;5060188;28;20111;-67
2023/05/07 02:40:22;;;;;;;14.00;2.40;;;26.10;33.40;;;;;;5063243;28;20078;-61
2023/05/07 02:42:48;;;;;;;17.02;2.58;;;26.10;32.70;;;;;;5063343;28;20067;-65
2023/05/07 02:45:15;;;;;;;27.25;10.77;;;26.10;32.80;;;;;;5064909;28;20078;-68
2023/05/07 02:47:41;;;;;;;25.52;14.02;;;26.00;33.30;;;;;;5059775;28;20126;-64
2023/05/07 02:50:08;;;;;;;33.70;15.85;;;25.90;33.60;;;;;;5066969;28;20549;-65
2023/05/07 02:52:34;;;;;;;35.03;15.43;;;25.90;33.90;;;;;;5060511;28;20390;-67
2023/05/07 02:55:07;;;;;;;33.22;17.15;;;25.80;34.10;;;;;;5063780;28;20078;-67
2023/05/07 02:57:34;;;;;;;24.58;13.77;;;25.70;34.30;;;;;;5046996;28;20199;-65
2023/05/07 03:00:09;;;;;;;11.80;3.17;;;25.70;34.70;;;;;;5058584;28;20386;-67
2023/05/07 03:02:36;;;;;;;13.75;2.85;;;25.60;34.60;;;;;;5058102;28;20066;-64
2023/05/07 03:05:03;;;;;;;9.05;2.88;;;25.60;34.60;;;;;;5058817;28;20064;-65
2023/05/07 03:07:29;;;;;;;15.40;3.40;;;25.60;34.80;;;;;;5061596;28;20078;-65
2023/05/07 03:09:56;;;;;;;13.23;2.72;;;25.50;35.10;;;;;;5060305;28;20064;-63
2023/05/07 03:12:22;;;;;;;5.97;2.40;;;25.40;34.70;;;;;;5062016;28;20056;-63
2023/05/07 03:14:49;;;;;;;6.80;1.95;;;25.30;34.70;;;;;;5063897;28;20052;-64
2023/05/07 03:17:16;;;;;;;8.75;1.88;;;25.20;34.50;;;;;;5059526;28;20392;-66
2023/05/07 03:19:42;;;;;;;12.57;2.65;;;25.10;34.80;;;;;;5059782;28;20213;-63
2023/05/07 03:22:08;;;;;;;8.95;2.20;;;25.10;34.60;;;;;;5064683;28;20065;-61
2023/05/07 03:24:35;;;;;;;8.77;2.45;;;24.90;34.80;;;;;;5057380;28;20514;-65
2023/05/07 03:27:01;;;;;;;11.73;2.40;;;24.80;35.00;;;;;;5042735;28;20467;-64
2023/05/07 03:29:28;;;;;;;11.32;2.22;;;24.70;35.30;;;;;;5064339;28;20545;-63
2023/05/07 03:31:54;;;;;;;7.05;2.75;;;24.60;35.40;;;;;;5063359;28;20112;-65
2023/05/07 03:34:21;;;;;;;13.70;3.30;;;24.60;35.60;;;;;;5069310;28;20129;-65
2023/05/07 03:36:51;;;;;;;18.60;2.92;;;24.50;35.70;;;;;;5048692;28;20410;-62
2023/05/07 03:39:17;;;;;;;12.63;3.17;;;24.40;35.70;;;;;;5064137;28;20054;-57
2023/05/07 03:41:44;;;;;;;31.83;4.85;;;24.30;35.90;;;;;;5070642;28;20085;-61
2023/05/07 03:44:10;;;;;;;24.02;4.70;;;24.20;36.10;;;;;;5070939;28;20056;-60
2023/05/07 03:46:38;;;;;;;25.92;4.03;;;24.20;36.30;;;;;;5070704;28;20080;-58
2023/05/07 03:49:04;;;;;;;26.92;4.22;;;24.10;36.60;;;;;;5069233;28;20424;-58
2023/05/07 03:51:30;;;;;;;13.90;2.70;;;24.00;36.80;;;;;;5066939;28;20215;-56
2023/05/07 03:53:57;;;;;;;18.83;3.28;;;23.90;37.10;;;;;;5070662;28;20068;-62
2023/05/07 03:56:26;;;;;;;19.70;3.70;;;23.90;37.50;;;;;;5059613;28;20126;-56
2023/05/07 03:58:53;;;;;;;10.15;2.75;;;23.80;37.70;;;;;;5066036;28;20131;-54
2023/05/07 04:01:19;;;;;;;9.45;2.17;;;23.70;37.80;;;;;;5060340;28;20063;-59
2023/05/07 04:03:45;;;;;;;15.90;2.35;;;23.60;38.10;;;;;;5063094;28;20086;-57
2023/05/07 04:06:12;;;;;;;6.72;2.33;;;23.60;38.50;;;;;;5066216;28;20543;-62
2023/05/07 04:08:38;;;;;;;26.92;2.78;;;23.40;38.90;;;;;;5068670;28;20071;-59
2023/05/07 04:11:05;;;;;;;12.65;2.25;;;23.40;39.40;;;;;;5068051;28;20499;-62
2023/05/07 04:13:31;;;;;;;7.88;2.00;;;23.30;39.60;;;;;;5070886;28;20099;-59
2023/05/07 04:15:57;;;;;;;15.45;2.10;;;23.30;39.80;;;;;;5068983;28;20073;-59
2023/05/07 04:18:24;;;;;;;8.18;1.65;;;23.20;40.30;;;;;;5062366;28;20068;-59
2023/05/07 04:20:50;;;;;;;13.20;2.28;;;23.20;40.60;;;;;;5070176;28;20073;-61
2023/05/07 04:23:17;;;;;;;10.10;1.98;;;23.00;41.00;;;;;;5071490;28;20063;-61
2023/05/07 04:25:43;;;;;;;22.42;2.47;;;23.00;41.10;;;;;;5069507;28;20497;-64
2023/05/07 04:28:10;;;;;;;14.55;2.05;;;22.90;41.40;;;;;;5067630;28;20092;-63
2023/05/07 04:30:36;;;;;;;8.70;1.73;;;22.90;41.50;;;;;;5065893;28;20102;-64
2023/05/07 04:33:02;;;;;;;13.48;2.25;;;22.80;41.60;;;;;;5063042;28;20068;-65
2023/05/07 04:35:29;;;;;;;9.50;1.63;;;22.70;41.70;;;;;;5070007;28;20524;-65
2023/05/07 04:37:55;;;;;;;17.98;1.92;;;22.70;41.90;;;;;;5066759;28;20068;-65
2023/05/07 04:40:22;;;;;;;10.43;1.80;;;22.70;41.80;;;;;;5068284;28;20068;-65
2023/05/07 04:42:48;;;;;;;12.00;1.80;;;22.60;41.80;;;;;;5067509;28;20065;-63
2023/05/07 04:45:15;;;;;;;13.38;2.08;;;22.60;41.90;;;;;;5068864;28;20084;-63
2023/05/07 04:47:41;;;;;;;11.75;2.05;;;22.50;41.80;;;;;;5062083;28;20064;-63
2023/05/07 04:50:08;;;;;;;11.75;2.35;;;22.40;42.10;;;;;;5069346;28;20058;-65
2023/05/07 04:52:35;;;;;;;11.57;2.20;;;22.50;42.00;;;;;;5070136;28;20092;-64
2023/05/07 04:55:01;;;;;;;9.18;2.17;;;22.30;42.10;;;;;;5067699;28;20109;-66
2023/05/07 04:57:28;;;;;;;18.75;3.22;;;22.40;42.10;;;;;;5066212;28;20076;-67
2023/05/07 04:59:54;;;;;;;8.85;2.78;;;22.20;42.20;;;;;;5063273;28;20065;-66
2023/05/07 05:02:21;;;;;;;8.38;3.35;;;22.20;42.40;;;;;;5063521;28;20069;-64
2023/05/07 05:04:47;;;;;;;10.38;2.50;;;22.20;42.50;;;;;;5064546;28;20065;-66
2023/05/07 05:07:13;;;;;;;8.27;2.28;;;22.10;42.70;;;;;;5060396;28;20073;-65
2023/05/07 05:09:40;;;;;;;12.77;2.42;;;22.10;42.50;;;;;;5070825;28;20128;-63
2023/05/07 05:12:07;;;;;;;11.43;2.38;;;22.00;42.10;;;;;;5063916;28;20068;-64
2023/05/07 05:14:33;;;;;;;8.20;1.77;;;22.00;42.10;;;;;;5068550;28;20209;-65
2023/05/07 05:17:00;;;;;;;6.30;1.50;;;21.90;42.10;;;;;;5062005;28;20548;-62
2023/05/07 05:19:26;;;;;;;10.40;1.33;;;21.90;42.50;;;;;;5065633;28;20123;-63
2023/05/07 05:21:52;;;;;;;16.45;1.95;;;21.70;43.00;;;;;;5058438;28;20562;-64
2023/05/07 05:24:19;;;;;;;6.13;2.28;;;21.60;43.20;;;;;;5060766;28;20167;-63
2023/05/07 05:26:46;;;;;;;8.35;3.47;;;21.50;43.30;;;;;;5067698;28;20070;-58
2023/05/07 05:29:12;;;;;;;9.73;2.47;;;21.50;43.70;;;;;;5058726;28;20485;-63
2023/05/07 05:31:39;;;;;;;5.55;2.92;;;21.40;43.90;;;;;;5059213;28;20164;-61
2023/05/07 05:34:05;;;;;;;6.40;2.60;;;21.50;43.80;;;;;;5067641;28;20087;-57
2023/05/07 05:36:31;;;;;;;6.88;3.00;;;21.40;44.20;;;;;;5067574;28;20469;-62
2023/05/07 05:38:58;;;;;;;5.63;1.70;;;21.40;44.20;;;;;;5065679;28;20085;-60
2023/05/07 05:41:24;;;;;;;4.93;1.70;;;21.40;44.20;;;;;;5061987;28;20478;-61
2023/05/07 05:43:51;;;;;;;9.95;1.38;;;21.40;44.10;;;;;;5064045;28;20084;-65
2023/05/07 05:46:17;;;;;;;8.80;1.90;;;21.40;44.10;;;;;;5062833;28;20212;-65
2023/05/07 05:48:43;;;;;;;5.60;1.30;;;21.40;44.30;;;;;;5062937;28;20078;-65
2023/05/07 05:51:10;;;;;;;5.63;1.02;;;21.30;44.50;;;;;;5069906;28;20078;-62
2023/05/07 05:53:36;;;;;;;5.13;1.30;;;21.30;44.50;;;;;;5069291;28;20150;-63
2023/05/07 05:56:03;;;;;;;5.32;1.42;;;21.20;44.70;;;;;;5068271;28;20107;-60
2023/05/07 05:58:30;;;;;;;3.47;0.93;;;21.10;44.90;;;;;;5064717;28;20189;-63
2023/05/07 06:00:56;;;;;;;2.50;1.05;;;21.10;44.90;;;;;;5067283;28;20085;-62
2023/05/07 06:03:22;;;;;;;3.88;1.10;;;21.00;44.80;;;;;;5069472;28;20147;-63
2023/05/07 06:05:49;;;;;;;2.95;1.20;;;21.10;44.80;;;;;;5068551;28;20209;-63
2023/05/07 06:08:15;;;;;;;7.75;1.50;;;21.10;44.80;;;;;;5066754;28;20568;-63
2023/05/07 06:10:42;;;;;;;5.00;1.95;;;21.00;44.40;;;;;;5068469;28;20131;-65
2023/05/07 06:13:08;;;;;;;6.70;2.65;;;21.00;44.10;;;;;;5067702;28;20065;-68
2023/05/07 06:15:35;;;;;;;6.97;2.05;;;21.00;43.80;;;;;;5060187;28;20117;-63
2023/05/07 06:18:01;;;;;;;6.38;2.15;;;21.00;43.10;;;;;;5062989;28;20065;-63
2023/05/07 06:20:27;;;;;;;8.38;1.80;;;21.10;42.60;;;;;;5060099;28;20070;-67
2023/05/07 06:22:54;;;;;;;7.50;1.42;;;21.10;42.20;;;;;;5058580;28;20074;-61
2023/05/07 06:25:20;;;;;;;11.02;2.20;;;21.10;41.90;;;;;;5062293;28;20457;-63
2023/05/07 06:27:46;;;;;;;8.85;2.72;;;21.10;42.00;;;;;;5059311;28;20160;-66
2023/05/07 06:30:13;;;;;;;2.97;1.40;;;21.10;42.20;;;;;;5058048;28;20076;-65
2023/05/07 06:32:40;;;;;;;3.65;1.48;;;21.10;42.00;;;;;;5064301;28;20111;-61
2023/05/07 06:35:07;;;;;;;4.20;1.10;;;21.10;42.40;;;;;;5063168;28;20062;-64
2023/05/07 06:37:34;;;;;;;4.05;1.30;;;21.10;42.70;;;;;;5062101;28;20147;-64
2023/05/07 06:40:00;;;;;;;5.40;1.27;;;21.10;42.90;;;;;;5061323;28;20073;-64
2023/05/07 06:42:27;;;;;;;2.92;0.98;;;21.10;43.10;;;;;;5056895;28;20078;-65
2023/05/07 06:44:53;;;;;;;6.75;1.20;;;21.00;43.10;;;;;;5061500;28;20089;-65
2023/05/07 06:47:19;;;;;;;7.22;1.27;;;21.00;43.30;;;;;;5063353;28;20092;-65
2023/05/07 06:49:46;;;;;;;1.95;1.02;;;21.00;43.40;;;;;;5064575;28;20073;-64
2023/05/07 06:52:12;;;;;;;4.60;1.33;;;21.00;43.50;;;;;;5061766;28;20061;-63
2023/05/07 06:54:38;;;;;;;4.93;1.17;;;20.80;43.50;;;;;;5060375;28;20082;-65
2023/05/07 06:57:05;;;;;;;2.90;1.10;;;20.90;43.50;;;;;;5061920;28;20112;-64
2023/05/07 06:59:31;;;;;;;3.53;1.13;;;20.90;43.40;;;;;;5061822;28;20514;-63
2023/05/07 07:01:58;;;;;;;2.28;0.90;;;20.70;43.50;;;;;;5061340;28;20080;-63
2023/05/07 07:04:25;;;;;;;2.25;0.95;;;20.70;43.50;;;;;;5062065;28;20069;-63
2023/05/07 07:06:53;;;;;;;11.82;1.42;;;20.60;43.50;;;;;;5063768;28;20085;-62
2023/05/07 07:09:20;;;;;;;2.78;1.10;;;20.60;43.30;;;;;;5065848;28;20095;-67
2023/05/07 07:11:46;;;;;;;4.55;1.02;;;20.60;43.50;;;;;;5066649;28;20073;-63
2023/05/07 07:14:13;;;;;;;3.13;1.00;;;20.60;43.50;;;;;;5065174;28;20077;-62
2023/05/07 07:16:39;;;;;;;8.45;1.63;;;20.60;43.60;;;;;;5065341;28;20068;-65
2023/05/07 07:19:06;;;;;;;1.80;0.93;;;20.60;43.90;;;;;;5065898;28;20353;-58
2023/05/07 07:21:32;;;;;;;3.95;1.20;;;20.40;44.30;;;;;;5066388;28;20071;-64
2023/05/07 07:23:58;;;;;;;5.10;1.33;;;20.40;44.50;;;;;;5064281;28;20156;-65
2023/05/07 07:26:25;;;;;;;4.68;1.08;;;20.30;44.60;;;;;;5065793;28;20101;-62
2023/05/07 07:28:51;;;;;;;6.47;1.13;;;20.30;44.90;;;;;;5067131;28;20133;-65
2023/05/07 07:31:18;;;;;;;3.17;1.02;;;20.30;45.00;;;;;;5064245;28;20140;-63
2023/05/07 07:33:44;;;;;;;2.13;0.88;;;20.20;45.10;;;;;;5066053;28;20071;-61
2023/05/07 07:36:10;;;;;;;2.45;1.02;;;20.20;45.00;;;;;;5063907;28;20670;-64
2023/05/07 07:38:37;;;;;;;7.20;1.00;;;20.20;44.90;;;;;;5066614;28;20080;-62
2023/05/07 07:41:03;;;;;;;6.45;1.10;;;20.10;44.50;;;;;;5063960;28;20075;-65
2023/05/07 07:43:30;;;;;;;3.28;1.10;;;20.10;44.40;;;;;;5064162;28;20541;-58
2023/05/07 07:45:56;;;;;;;5.30;1.20;;;20.00;44.50;;;;;;5064071;28;20088;-61
2023/05/07 07:48:23;;;;;;;5.80;1.33;;;19.90;44.60;;;;;;5064896;28;20078;-65
2023/05/07 07:50:51;;;;;;;6.82;1.40;;;19.90;44.50;;;;;;5063847;28;20069;-63
2023/05/07 07:53:18;;;;;;;4.18;1.00;;;19.90;44.40;;;;;;5063353;28;20064;-59
2023/05/07 07:55:44;;;;;;;4.55;1.02;;;19.90;44.30;;;;;;5064569;28;20073;-64
2023/05/07 07:58:11;;;;;;;4.38;0.88;;;19.90;44.30;;;;;;5066451;28;20092;-65
2023/05/07 08:00:37;;;;;;;3.03;1.17;;;19.80;44.40;;;;;;5063986;28;20162;-63
2023/05/07 08:03:04;;;;;;;13.70;1.40;;;19.80;44.50;;;;;;5065416;28;20073;-63
2023/05/07 08:05:31;;;;;;;4.93;1.10;;;19.80;44.60;;;;;;5066871;28;20097;-63
2023/05/07 08:07:58;;;;;;;3.63;1.05;;;19.70;44.40;;;;;;5066543;28;20085;-62
2023/05/07 08:10:24;;;;;;;4.63;1.00;;;19.80;44.20;;;;;;5066124;28;20070;-64
2023/05/07 08:12:51;;;;;;;16.33;1.65;;;19.80;43.80;;;;;;5065928;28;20084;-65
2023/05/07 08:15:18;;;;;;;5.72;1.20;;;19.70;43.80;;;;;;5065822;28;20149;-64
2023/05/07 08:17:44;;;;;;;3.08;1.00;;;19.80;43.90;;;;;;5064082;28;20079;-60
2023/05/07 08:20:10;;;;;;;4.45;1.02;;;19.70;44.80;;;;;;5066744;28;20074;-63
2023/05/07 08:22:37;;;;;;;2.28;0.93;;;19.60;44.30;;;;;;5065183;28;20152;-63
2023/05/07 08:25:04;;;;;;;3.35;1.10;;;19.70;44.20;;;;;;5064477;28;20068;-57
2023/05/07 08:27:30;;;;;;;7.70;1.30;;;19.60;44.20;;;;;;5067022;28;20067;-62
2023/05/07 08:29:57;;;;;;;5.07;1.20;;;19.60;44.10;;;;;;5067114;28;20101;-63
2023/05/07 08:32:23;;;;;;;4.18;1.02;;;19.60;44.10;;;;;;5064605;28;20116;-61
2023/05/07 08:34:49;;;;;;;1.38;0.90;;;19.60;44.10;;;;;;5061494;28;20068;-63
2023/05/07 08:37:16;;;;;;;3.70;0.90;;;19.60;43.80;;;;;;5067883;28;20075;-63
2023/05/07 08:39:42;;;;;;;3.47;0.88;;;19.50;43.60;;;;;;5062799;28;20071;-62
2023/05/07 08:42:11;;;;;;;6.82;1.30;;;19.60;43.30;;;;;;5062169;28;20090;-60
2023/05/07 08:44:39;;;;;;;2.13;0.93;;;19.60;43.30;;;;;;5064118;28;20090;-63
2023/05/07 08:47:07;;;;;;;4.78;0.90;;;19.60;43.30;;;;;;5063257;28;20083;-63
2023/05/07 08:49:35;;;;;;;2.45;1.13;;;19.60;42.80;;;;;;5050595;28;20457;-63
2023/05/07 08:52:01;;;;;;;4.85;1.05;;;19.60;43.00;;;;;;5063995;28;20585;-62
2023/05/07 08:54:29;;;;;;;1.40;0.90;;;19.60;42.80;;;;;;5063731;28;20075;-63
2023/05/07 08:56:55;;;;;;;10.20;1.13;;;19.60;42.80;;;;;;5065322;28;20443;-60
2023/05/07 08:59:22;;;;;;;4.00;0.95;;;19.60;42.80;;;;;;5064023;28;20523;-63
2023/05/07 09:01:48;;;;;;;6.25;2.60;;;19.60;42.50;;;;;;5064168;28;20070;-59
2023/05/07 09:04:15;;;;;;;9.57;2.13;;;19.60;42.40;;;;;;5062734;28;20071;-66
2023/05/07 09:06:41;;;;;;;2.90;1.17;;;19.50;42.30;;;;;;5065734;28;20125;-64
2023/05/07 09:09:08;;;;;;;6.95;1.00;;;19.60;42.00;;;;;;5063443;28;20067;-64
2023/05/07 09:11:34;;;;;;;8.23;1.10;;;19.60;41.90;;;;;;5050996;28;20492;-61
2023/05/07 09:14:02;;;;;;;6.82;1.17;;;19.60;42.00;;;;;;5062896;28;20119;-67
2023/05/07 09:16:30;;;;;;;5.97;1.20;;;19.50;42.20;;;;;;5063523;28;20099;-65
2023/05/07 09:19:00;;;;;;;3.75;0.90;;;19.50;42.20;;;;;;5062698;28;20075;-61
2023/05/07 09:21:27;;;;;;;3.13;1.10;;;19.40;42.50;;;;;;5061772;28;20134;-64
2023/05/07 09:23:55;;;;;;;3.92;1.13;;;19.30;42.30;;;;;;5061305;28;20083;-61
2023/05/07 09:26:23;;;;;;;3.15;1.15;;;19.30;42.30;;;;;;5063414;28;20134;-63
2023/05/07 09:28:49;;;;;;;5.10;1.30;;;19.40;42.50;;;;;;5061154;28;20070;-64
2023/05/07 09:31:15;;;;;;;7.82;1.30;;;19.20;42.50;;;;;;5060725;28;20073;-62
2023/05/07 09:33:42;;;;;;;6.80;1.38;;;19.20;43.10;;;;;;5065028;28;20188;-63
2023/05/07 09:36:09;;;;;;;6.32;1.67;;;19.20;43.80;;;;;;5062393;28;20083;-65
2023/05/07 09:38:37;;;;;;;5.28;1.48;;;19.10;43.70;;;;;;5068758;28;20090;-62
2023/05/07 09:41:09;;;;;;;6.47;1.73;;;19.10;43.90;;;;;;5063600;28;20101;-63
2023/05/07 09:43:37;;;;;;;5.75;1.40;;;19.00;44.10;;;;;;5063050;28;20586;-60
2023/05/07 09:46:14;;;;;;;7.85;1.10;;;18.90;44.30;;;;;;5062061;28;20105;-63
2023/05/07 09:48:42;;;;;;;7.32;1.20;;;18.90;44.30;;;;;;5064772;28;20079;-63
2023/05/07 09:51:28;;;;;;;2.58;1.17;;;18.90;44.50;;;;;;5064056;28;20067;-63
2023/05/07 09:53:56;;;;;;;5.57;1.30;;;18.80;44.20;;;;;;5062579;28;20059;-64
2023/05/07 09:56:24;;;;;;;3.33;1.13;;;18.80;44.20;;;;;;5062803;28;20089;-62
2023/05/07 09:58:54;;;;;;;3.15;1.00;;;18.80;44.10;;;;;;5063903;28;20147;-62
2023/05/07 10:01:24;;;;;;;3.10;1.20;;;18.70;43.90;;;;;;5062854;28;20087;-62
2023/05/07 10:03:52;;;;;;;1.38;0.75;;;18.70;44.00;;;;;;5062552;28;20150;-64
2023/05/07 10:06:20;;;;;;;2.75;0.90;;;18.70;44.10;;;;;;5061689;28;20177;-61
2023/05/07 10:08:48;;;;;;;5.20;1.23;;;18.60;44.10;;;;;;5066483;28;20117;-64
2023/05/07 10:11:15;;;;;;;6.30;1.10;;;18.50;44.30;;;;;;5063685;28;20472;-61
2023/05/07 10:13:43;;;;;;;4.07;0.93;;;18.60;44.80;;;;;;5062675;28;20075;-61
2023/05/07 10:16:09;;;;;;;2.22;0.93;;;18.50;44.90;;;;;;5061634;28;20169;-59
2023/05/07 10:18:37;;;;;;;5.53;1.15;;;18.60;45.00;;;;;;5060890;28;20066;-61
2023/05/07 10:21:21;;;;;;;2.72;0.80;;;18.50;45.20;;;;;;5065830;28;20149;-60
2023/05/07 10:24:14;;;;;;;3.45;0.80;;;18.50;45.40;;;;;;5063306;28;20067;-63
2023/05/07 10:26:44;;;;;;;5.20;0.75;;;18.50;45.90;;;;;;5050810;28;20099;-62
2023/05/07 10:29:23;;;;;;;3.67;0.80;;;18.40;46.40;;;;;;5063843;28;20120;-64
2023/05/07 10:32:02;;;;;;;4.20;0.90;;;18.40;46.80;;;;;;5061981;28;20077;-65
2023/05/07 10:34:36;;;;;;;2.15;1.10;;;18.30;47.40;;;;;;5062588;28;20074;-63
2023/05/07 10:37:03;;;;;;;3.15;1.02;;;18.20;48.00;;;;;;5063716;28;20080;-65
2023/05/07 10:39:30;;;;;;;5.60;0.90;;;18.10;48.30;;;;;;5062467;28;20090;-63
2023/05/07 10:41:57;;;;;;;3.38;0.80;;;18.30;49.00;;;;;;5060880;28;20165;-59
2023/05/07 10:44:28;;;;;;;4.32;1.45;;;18.80;48.10;;;;;;5058760;28;20518;-62
2023/05/07 10:47:12;;;;;;;3.22;1.00;;;19.20;47.00;;;;;;5060648;28;20091;-64
2023/05/07 10:49:44;;;;;;;3.40;1.00;;;19.40;46.30;;;;;;5062102;28;20399;-64
2023/05/07 10:52:25;;;;;;;4.65;0.93;;;19.60;46.00;;;;;;5063617;28;20094;-64
2023/05/07 10:55:21;;;;;;;3.08;0.77;;;19.50;45.20;;;;;;5060435;28;20074;-64
2023/05/07 10:57:47;;;;;;;3.70;0.90;;;19.60;44.80;;;;;;5059909;28;20126;-61
2023/05/07 11:00:25;;;;;;;2.35;1.00;;;19.60;44.20;;;;;;5062965;28;20134;-61
2023/05/07 11:03:01;;;;;;;5.60;1.50;;;19.70;43.80;;;;;;5064050;28;20070;-60
2023/05/07 11:05:29;;;;;;;1.33;0.80;;;19.70;43.30;;;;;;5061715;28;20082;-60
2023/05/07 11:08:00;;;;;;;5.97;0.70;;;19.70;42.80;;;;;;5065785;28;20161;-62
2023/05/07 11:10:58;;;;;;;2.75;0.93;;;19.80;42.80;;;;;;5064147;28;20452;-61
2023/05/07 11:13:45;;;;;;;3.60;0.98;;;19.80;42.50;;;;;;5061638;28;20083;-61
2023/05/07 11:16:27;;;;;;;2.67;0.95;;;19.70;42.40;;;;;;5060993;28;20082;-62
2023/05/07 11:18:55;;;;;;;1.98;0.80;;;19.80;42.80;;;;;;5059946;28;20063;-60
2023/05/07 11:21:41;;;;;;;3.83;1.00;;;19.80;42.60;;;;;;5062081;28;20223;-62
2023/05/07 11:24:10;;;;;;;1.25;0.95;;;19.70;42.60;;;;;;5061519;28;20183;-61
2023/05/07 11:27:03;;;;;;;4.38;1.08;;;19.80;42.80;;;;;;5060481;28;20082;-61
2023/05/07 11:29:30;;;;;;;5.20;0.70;;;19.70;42.80;;;;;;5060478;28;20079;-63
2023/05/07 11:31:57;;;;;;;7.18;5.25;;;19.70;42.70;;;;;;5060565;28;20082;-61
2023/05/07 11:34:26;;;;;;;22.92;10.38;;;19.50;43.10;;;;;;5061155;28;20078;-60
2023/05/07 11:36:52;;;;;;;17.67;8.80;;;19.40;43.60;;;;;;5063073;28;20086;-62
2023/05/07 11:39:35;;;;;;;2.63;1.00;;;19.40;43.50;;;;;;5064489;28;20538;-64
2023/05/07 11:42:02;;;;;;;2.50;0.90;;;19.40;43.50;;;;;;5062486;28;20071;-61
2023/05/07 11:44:45;;;;;;;2.88;0.70;;;19.50;43.10;;;;;;5061297;28;20108;-62
2023/05/07 11:47:17;;;;;;;2.97;1.00;;;19.40;42.80;;;;;;5062491;28;20407;-61
2023/05/07 11:49:44;;;;;;;3.60;1.10;;;19.40;43.00;;;;;;5061778;28;20089;-62
2023/05/07 11:52:10;;;;;;;4.07;1.05;;;19.20;43.00;;;;;;5064809;28;20101;-62
2023/05/07 11:54:38;;;;;;;3.25;0.95;;;19.20;43.10;;;;;;5066956;28;20076;-62
2023/05/07 11:57:05;;;;;;;2.83;0.82;;;19.10;43.20;;;;;;5066513;28;20151;-64
2023/05/07 11:59:44;;;;;;;1.90;0.95;;;19.10;43.40;;;;;;5065563;28;20066;-61
2023/05/07 12:02:10;;;;;;;3.88;0.80;;;19.10;43.60;;;;;;5054078;28;20075;-62
2023/05/07 12:04:39;;;;;;;3.72;0.80;;;18.90;43.80;;;;;;5065742;28;20094;-64
2023/05/07 12:07:06;;;;;;;2.20;0.82;;;19.10;43.80;;;;;;5066294;28;20071;-63
2023/05/07 12:09:33;;;;;;;5.88;1.10;;;19.00;43.70;;;;;;5066443;28;20127;-61
2023/05/07 12:12:04;;;;;;;1.58;0.88;;;18.90;44.10;;;;;;5065532;28;20075;-62
2023/05/07 12:14:31;;;;;;;1.75;0.73;;;19.00;44.30;;;;;;5064450;28;20070;-63
2023/05/07 12:16:58;;;;;;;9.70;1.10;;;19.00;44.20;;;;;;5064002;28;20117;-61
2023/05/07 12:19:24;;;;;;;6.70;0.80;;;19.00;43.90;;;;;;5066495;28;20082;-63
2023/05/07 12:21:51;;;;;;;3.80;0.73;;;19.10;43.70;;;;;;5065518;28;20549;-62
2023/05/07 12:24:17;;;;;;;3.10;0.77;;;19.00;43.50;;;;;;5065529;28;20144;-60
2023/05/07 12:26:44;;;;;;;2.88;0.80;;;18.90;43.70;;;;;;5065989;28;20067;-61
2023/05/07 12:29:10;;;;;;;3.15;0.90;;;18.60;44.00;;;;;;5064969;28;20081;-61
2023/05/07 12:31:40;;;;;;;4.13;1.00;;;18.60;44.40;;;;;;5064615;28;20106;-61
2023/05/07 12:34:06;;;;;;;4.93;1.00;;;18.40;44.80;;;;;;5064175;28;20146;-65
2023/05/07 12:36:40;;;;;;;2.53;1.00;;;18.40;45.20;;;;;;5046668;28;20585;-62
2023/05/07 12:39:09;;;;;;;6.47;1.00;;;18.50;45.40;;;;;;5067179;28;20486;-63
2023/05/07 12:41:55;;;;;;;7.32;1.30;;;18.60;45.20;;;;;;5065678;28;22004;-62
2023/05/07 12:44:28;;;;;;;8.80;1.45;;;18.60;45.50;;;;;;5064459;28;20075;-62
2023/05/07 12:46:55;;;;;;;4.15;1.17;;;18.50;45.00;;;;;;5063325;28;20435;-62